createdAt,value
2018-07-08T00:00:22.760Z,0.00
2018-07-08T00:01:22.808Z,0.00
2018-07-08T00:02:22.826Z,0.00
2018-07-08T00:03:22.812Z,0.00
2018-07-08T00:04:22.929Z,0.00
2018-07-08T00:05:22.835Z,0.00
2018-07-08T00:06:22.908Z,0.00
2018-07-08T00:07:22.866Z,0.00
2018-07-08T00:08:22.872Z,0.00
2018-07-08T00:09:22.893Z,0.00
2018-07-08T00:10:22.900Z,0.00
2018-07-08T00:11:22.981Z,0.00
2018-07-08T00:12:22.917Z,0.00
2018-07-08T00:13:22.935Z,0.00
2018-07-08T00:14:23.003Z,0.00
2018-07-08T00:15:22.971Z,0.00
2018-07-08T00:16:23.130Z,0.00
2018-07-08T00:17:22.988Z,0.00
2018-07-08T00:18:23.001Z,0.00
2018-07-08T00:19:23.056Z,0.00
2018-07-08T00:20:23.022Z,0.00
2018-07-08T00:21:23.037Z,0.00
2018-07-08T00:22:23.053Z,0.00
2018-07-08T00:23:23.054Z,0.00
2018-07-08T00:24:23.132Z,0.00
2018-07-08T00:25:23.085Z,0.00
2018-07-08T00:26:23.093Z,0.00
2018-07-08T00:27:23.119Z,0.00
2018-07-08T00:28:23.148Z,0.00
2018-07-08T00:29:23.174Z,0.00
2018-07-08T00:30:23.161Z,0.00
2018-07-08T00:31:23.178Z,0.00
2018-07-08T00:32:23.182Z,0.00
2018-07-08T00:33:23.927Z,0.00
2018-07-08T00:34:23.228Z,0.00
2018-07-08T00:35:23.293Z,0.00
2018-07-08T00:36:23.246Z,0.00
2018-07-08T00:37:23.240Z,0.00
2018-07-08T00:38:23.250Z,0.00
2018-07-08T00:39:23.259Z,0.00
2018-07-08T00:40:23.307Z,0.00
2018-07-08T00:41:23.321Z,0.00
2018-07-08T00:42:23.330Z,0.00
2018-07-08T00:43:23.319Z,0.00
2018-07-08T00:44:23.313Z,0.00
2018-07-08T00:45:23.395Z,0.00
2018-07-08T00:46:23.412Z,0.00
2018-07-08T00:47:23.372Z,0.00
2018-07-08T00:48:23.449Z,0.00
2018-07-08T00:49:23.397Z,0.00
2018-07-08T00:50:23.518Z,0.00
2018-07-08T00:51:23.415Z,0.00
2018-07-08T00:52:23.427Z,0.00
2018-07-08T00:53:23.448Z,0.00
2018-07-08T00:54:23.506Z,0.00
2018-07-08T00:55:23.469Z,0.00
2018-07-08T00:56:23.475Z,0.00
2018-07-08T00:57:23.507Z,0.00
2018-07-08T00:58:23.535Z,0.00
2018-07-08T00:59:23.567Z,0.00
2018-07-08T01:00:23.557Z,0.00
2018-07-08T01:01:23.532Z,0.00
2018-07-08T01:02:23.553Z,0.00
2018-07-08T01:03:23.575Z,0.00
2018-07-08T01:04:23.611Z,0.00
2018-07-08T01:05:23.631Z,0.00
2018-07-08T01:06:23.598Z,0.00
2018-07-08T01:07:23.724Z,0.00
2018-07-08T01:08:23.636Z,0.00
2018-07-08T01:09:23.635Z,0.00
2018-07-08T01:10:23.687Z,0.00
2018-07-08T01:11:23.672Z,0.00
2018-07-08T01:12:23.874Z,0.00
2018-07-08T01:13:23.693Z,0.00
2018-07-08T01:14:23.696Z,0.00
2018-07-08T01:15:23.743Z,0.00
2018-07-08T01:16:23.731Z,0.00
2018-07-08T01:17:23.769Z,0.00
2018-07-08T01:18:23.810Z,0.00
2018-07-08T01:19:23.761Z,0.00
2018-07-08T01:20:23.793Z,0.00
2018-07-08T01:21:23.804Z,0.00
2018-07-08T01:22:23.812Z,0.00
2018-07-08T01:23:23.872Z,0.00
2018-07-08T01:24:23.823Z,0.00
2018-07-08T01:25:23.859Z,0.00
2018-07-08T01:26:23.862Z,0.00
2018-07-08T01:27:23.857Z,0.00
2018-07-08T01:28:23.906Z,0.00
2018-07-08T01:29:23.949Z,0.00
2018-07-08T01:30:23.908Z,0.00
2018-07-08T01:31:23.927Z,0.00
2018-07-08T01:32:23.925Z,0.00
2018-07-08T01:33:23.948Z,0.00
2018-07-08T01:34:24.015Z,0.00
2018-07-08T01:35:24.038Z,0.00
2018-07-08T01:36:23.986Z,0.00
2018-07-08T01:37:24.020Z,0.00
2018-07-08T01:38:24.008Z,0.00
2018-07-08T01:39:24.181Z,0.00
2018-07-08T01:40:24.073Z,0.00
2018-07-08T01:41:24.067Z,0.00
2018-07-08T01:42:24.084Z,0.00
2018-07-08T01:43:24.068Z,0.00
2018-07-08T01:44:24.150Z,0.00
2018-07-08T01:45:24.110Z,0.00
2018-07-08T01:46:24.102Z,0.00
2018-07-08T01:47:24.162Z,0.00
2018-07-08T01:48:24.164Z,0.00
2018-07-08T01:49:24.150Z,0.00
2018-07-08T01:50:24.164Z,0.00
2018-07-08T01:51:24.169Z,0.00
2018-07-08T01:52:24.200Z,0.00
2018-07-08T01:53:24.238Z,0.00
2018-07-08T01:54:24.205Z,0.00
2018-07-08T01:55:24.223Z,0.00
2018-07-08T01:56:24.255Z,0.00
2018-07-08T01:57:24.229Z,0.00
2018-07-08T01:58:24.297Z,0.00
2018-07-08T01:59:24.259Z,0.00
2018-07-08T02:00:24.291Z,0.00
2018-07-08T02:01:24.333Z,0.00
2018-07-08T02:02:24.308Z,0.00
2018-07-08T02:03:24.372Z,0.00
2018-07-08T02:04:24.379Z,0.00
2018-07-08T02:05:24.337Z,0.00
2018-07-08T02:06:24.346Z,0.00
2018-07-08T02:07:24.390Z,0.00
2018-07-08T02:08:24.384Z,0.00
2018-07-08T02:09:24.420Z,0.00
2018-07-08T02:10:24.417Z,0.00
2018-07-08T02:11:24.427Z,0.00
2018-07-08T02:12:24.427Z,0.00
2018-07-08T02:13:24.480Z,0.00
2018-07-08T02:14:24.503Z,0.00
2018-07-08T02:15:24.475Z,0.00
2018-07-08T02:16:24.475Z,0.00
2018-07-08T02:17:24.485Z,4.00
2018-07-08T02:18:24.666Z,4.00
2018-07-08T02:19:24.589Z,4.00
2018-07-08T02:20:24.531Z,0.00
2018-07-08T02:21:24.542Z,0.00
2018-07-08T02:22:24.558Z,0.00
2018-07-08T02:23:24.563Z,4.00
2018-07-08T02:24:24.568Z,4.00
2018-07-08T02:25:24.645Z,4.00
2018-07-08T02:26:24.624Z,4.00
2018-07-08T02:27:24.647Z,4.00
2018-07-08T02:28:24.659Z,8.00
2018-07-08T02:29:24.639Z,4.00
2018-07-08T02:30:24.653Z,8.00
2018-07-08T02:31:24.701Z,4.00
2018-07-08T02:32:24.717Z,8.00
2018-07-08T02:33:24.678Z,8.00
2018-07-08T02:34:24.704Z,12.00
2018-07-08T02:35:24.755Z,8.00
2018-07-08T02:36:24.738Z,12.00
2018-07-08T02:37:24.772Z,12.00
2018-07-08T02:38:24.760Z,12.00
2018-07-08T02:39:24.768Z,12.00
2018-07-08T02:40:24.844Z,16.00
2018-07-08T02:41:24.776Z,16.00
2018-07-08T02:42:24.849Z,20.00
2018-07-08T02:43:24.854Z,20.00
2018-07-08T02:44:24.823Z,20.00
2018-07-08T02:45:24.839Z,20.00
2018-07-08T02:46:24.848Z,20.00
2018-07-08T02:47:24.881Z,24.00
2018-07-08T02:48:24.895Z,24.00
2018-07-08T02:49:24.895Z,28.00
2018-07-08T02:50:24.945Z,28.00
2018-07-08T02:51:24.923Z,28.00
2018-07-08T02:52:24.961Z,32.00
2018-07-08T02:53:24.937Z,40.00
2018-07-08T02:54:24.961Z,44.00
2018-07-08T02:55:25.009Z,52.00
2018-07-08T02:56:24.959Z,56.00
2018-07-08T02:57:25.058Z,56.00
2018-07-08T02:58:25.000Z,60.00
2018-07-08T02:59:25.046Z,64.00
2018-07-08T03:00:25.029Z,64.00
2018-07-08T03:01:25.032Z,68.00
2018-07-08T03:02:25.083Z,68.00
2018-07-08T03:03:25.060Z,68.00
2018-07-08T03:04:25.100Z,72.00
2018-07-08T03:05:25.078Z,72.00
2018-07-08T03:06:25.113Z,72.00
2018-07-08T03:07:25.230Z,76.00
2018-07-08T03:08:25.157Z,76.00
2018-07-08T03:09:25.173Z,80.00
2018-07-08T03:10:25.130Z,80.00
2018-07-08T03:11:25.198Z,80.00
2018-07-08T03:12:25.233Z,84.00
2018-07-08T03:13:25.202Z,80.00
2018-07-08T03:14:25.181Z,80.00
2018-07-08T03:15:25.211Z,84.00
2018-07-08T03:16:25.211Z,88.00
2018-07-08T03:17:25.239Z,88.00
2018-07-08T03:18:25.286Z,92.00
2018-07-08T03:19:25.252Z,92.00
2018-07-08T03:20:25.257Z,92.00
2018-07-08T03:21:25.263Z,92.00
2018-07-08T03:22:25.295Z,88.00
2018-07-08T03:23:25.327Z,88.00
2018-07-08T03:24:25.331Z,88.00
2018-07-08T03:25:25.325Z,92.00
2018-07-08T03:26:25.336Z,100.00
2018-07-08T03:27:25.351Z,104.00
2018-07-08T03:28:25.384Z,108.00
2018-07-08T03:29:25.363Z,112.00
2018-07-08T03:30:25.388Z,120.00
2018-07-08T03:31:25.399Z,124.00
2018-07-08T03:32:25.408Z,128.00
2018-07-08T03:33:25.464Z,132.00
2018-07-08T03:34:25.424Z,140.00
2018-07-08T03:35:25.510Z,140.00
2018-07-08T03:36:25.460Z,140.00
2018-07-08T03:37:25.471Z,140.00
2018-07-08T03:38:25.519Z,144.00
2018-07-08T03:39:25.510Z,144.00
2018-07-08T03:40:25.501Z,148.00
2018-07-08T03:41:25.501Z,148.00
2018-07-08T03:42:25.514Z,148.00
2018-07-08T03:43:25.566Z,148.00
2018-07-08T03:44:25.566Z,152.00
2018-07-08T03:45:25.563Z,164.00
2018-07-08T03:46:25.574Z,176.00
2018-07-08T03:47:25.628Z,196.00
2018-07-08T03:48:25.628Z,212.00
2018-07-08T03:49:25.653Z,224.00
2018-07-08T03:50:25.765Z,236.00
2018-07-08T03:51:25.624Z,236.00
2018-07-08T03:52:25.635Z,236.00
2018-07-08T03:53:25.657Z,252.00
2018-07-08T03:54:25.698Z,264.00
2018-07-08T03:55:25.832Z,272.00
2018-07-08T03:56:25.698Z,284.00
2018-07-08T03:57:25.704Z,304.00
2018-07-08T03:58:25.712Z,308.00
2018-07-08T03:59:25.733Z,308.00
2018-07-08T04:00:25.747Z,304.00
2018-07-08T04:01:25.793Z,296.00
2018-07-08T04:02:25.766Z,284.00
2018-07-08T04:03:25.780Z,264.00
2018-07-08T04:04:25.799Z,260.00
2018-07-08T04:05:25.805Z,252.00
2018-07-08T04:06:25.877Z,240.00
2018-07-08T04:07:25.828Z,240.00
2018-07-08T04:08:25.828Z,236.00
2018-07-08T04:09:25.846Z,228.00
2018-07-08T04:10:25.887Z,256.00
2018-07-08T04:11:25.901Z,272.00
2018-07-08T04:12:25.900Z,224.00
2018-07-08T04:13:25.976Z,232.00
2018-07-08T04:14:25.933Z,232.00
2018-07-08T04:15:25.935Z,236.00
2018-07-08T04:16:25.937Z,240.00
2018-07-08T04:17:25.940Z,244.00
2018-07-08T04:18:25.986Z,244.00
2018-07-08T04:19:25.971Z,248.00
2018-07-08T04:20:25.979Z,268.00
2018-07-08T04:21:25.987Z,284.00
2018-07-08T04:22:26.043Z,304.00
2018-07-08T04:23:26.077Z,328.00
2018-07-08T04:24:26.031Z,344.00
2018-07-08T04:25:26.047Z,376.00
2018-07-08T04:26:26.063Z,400.00
2018-07-08T04:27:26.079Z,416.00
2018-07-08T04:28:26.134Z,440.00
2018-07-08T04:29:26.106Z,460.00
2018-07-08T04:30:26.190Z,480.00
2018-07-08T04:31:26.110Z,496.00
2018-07-08T04:32:26.136Z,484.00
2018-07-08T04:33:26.219Z,472.00
2018-07-08T04:34:26.175Z,480.00
2018-07-08T04:35:26.157Z,480.00
2018-07-08T04:36:26.196Z,480.00
2018-07-08T04:37:26.194Z,492.00
2018-07-08T04:38:26.258Z,496.00
2018-07-08T04:39:26.211Z,500.00
2018-07-08T04:40:26.230Z,504.00
2018-07-08T04:41:26.261Z,504.00
2018-07-08T04:42:26.255Z,528.00
2018-07-08T04:43:26.324Z,560.00
2018-07-08T04:44:26.281Z,564.00
2018-07-08T04:45:26.330Z,552.00
2018-07-08T04:46:26.299Z,520.00
2018-07-08T04:47:26.313Z,492.00
2018-07-08T04:48:26.359Z,476.00
2018-07-08T04:49:26.326Z,480.00
2018-07-08T04:50:26.344Z,472.00
2018-07-08T04:51:26.384Z,448.00
2018-07-08T04:52:26.386Z,432.00
2018-07-08T04:53:26.404Z,440.00
2018-07-08T04:54:26.420Z,448.00
2018-07-08T04:55:26.453Z,440.00
2018-07-08T04:56:26.596Z,456.00
2018-07-08T04:57:26.422Z,464.00
2018-07-08T04:58:26.447Z,472.00
2018-07-08T04:59:26.449Z,476.00
2018-07-08T05:00:26.458Z,488.00
2018-07-08T05:01:26.498Z,508.00
2018-07-08T05:02:26.518Z,548.00
2018-07-08T05:03:26.510Z,600.00
2018-07-08T05:04:26.549Z,644.00
2018-07-08T05:05:26.533Z,700.00
2018-07-08T05:06:26.576Z,756.00
2018-07-08T05:07:26.569Z,820.00
2018-07-08T05:08:26.569Z,836.00
2018-07-08T05:09:26.611Z,852.00
2018-07-08T05:10:26.590Z,848.00
2018-07-08T05:11:26.634Z,880.00
2018-07-08T05:12:26.615Z,952.00
2018-07-08T05:13:26.675Z,1048.00
2018-07-08T05:14:26.633Z,1112.00
2018-07-08T05:15:26.659Z,1116.00
2018-07-08T05:16:26.869Z,1124.00
2018-07-08T05:17:26.664Z,1152.00
2018-07-08T05:18:26.763Z,1188.00
2018-07-08T05:19:26.740Z,1244.00
2018-07-08T05:20:26.738Z,1252.00
2018-07-08T05:21:26.719Z,1200.00
2018-07-08T05:22:26.784Z,1164.00
2018-07-08T05:23:26.770Z,1116.00
2018-07-08T05:24:26.806Z,1104.00
2018-07-08T05:25:26.784Z,1100.00
2018-07-08T05:26:26.780Z,1096.00
2018-07-08T05:27:26.814Z,1092.00
2018-07-08T05:28:26.800Z,1088.00
2018-07-08T05:29:26.886Z,1088.00
2018-07-08T05:30:26.874Z,1080.00
2018-07-08T05:31:26.861Z,1104.00
2018-07-08T05:32:26.864Z,1128.00
2018-07-08T05:33:26.897Z,1140.00
2018-07-08T05:34:26.884Z,1116.00
2018-07-08T05:35:26.935Z,1120.00
2018-07-08T05:36:27.017Z,1120.00
2018-07-08T05:37:26.910Z,1188.00
2018-07-08T05:38:26.923Z,1256.00
2018-07-08T05:39:26.958Z,1312.00
2018-07-08T05:40:27.008Z,1480.00
2018-07-08T05:41:26.973Z,1564.00
2018-07-08T05:42:27.697Z,1008.00
2018-07-08T05:43:27.536Z,1464.00
2018-07-08T05:44:27.080Z,1320.00
2018-07-08T05:45:27.074Z,1172.00
2018-07-08T05:46:27.036Z,1116.00
2018-07-08T05:47:27.076Z,1076.00
2018-07-08T05:48:27.046Z,1084.00
2018-07-08T05:49:27.068Z,1164.00
2018-07-08T05:50:27.190Z,1284.00
2018-07-08T05:51:27.105Z,1356.00
2018-07-08T05:52:27.114Z,1320.00
2018-07-08T05:53:27.146Z,1200.00
2018-07-08T05:54:27.122Z,1124.00
2018-07-08T05:55:27.190Z,1124.00
2018-07-08T05:56:27.201Z,1076.00
2018-07-08T05:57:27.173Z,1024.00
2018-07-08T05:58:27.234Z,1004.00
2018-07-08T05:59:27.212Z,1020.00
2018-07-08T06:00:27.197Z,1036.00
2018-07-08T06:01:27.222Z,1052.00
2018-07-08T06:02:27.263Z,1124.00
2018-07-08T06:03:27.275Z,1172.00
2018-07-08T06:04:27.289Z,1208.00
2018-07-08T06:05:27.293Z,1268.00
2018-07-08T06:06:27.303Z,1384.00
2018-07-08T06:07:27.312Z,1584.00
2018-07-08T06:08:27.375Z,1876.00
2018-07-08T06:09:27.328Z,2048.00
2018-07-08T06:10:27.433Z,1880.00
2018-07-08T06:11:27.337Z,1504.00
2018-07-08T06:12:27.362Z,1352.00
2018-07-08T06:13:27.449Z,1248.00
2018-07-08T06:14:27.403Z,1224.00
2018-07-08T06:15:27.456Z,1184.00
2018-07-08T06:16:27.455Z,1120.00
2018-07-08T06:17:27.428Z,1056.00
2018-07-08T06:18:27.508Z,1048.00
2018-07-08T06:19:27.493Z,1112.00
2018-07-08T06:20:27.446Z,1180.00
2018-07-08T06:21:28.365Z,1216.00
2018-07-08T06:22:27.517Z,1192.00
2018-07-08T06:23:27.496Z,1212.00
2018-07-08T06:24:27.552Z,1216.00
2018-07-08T06:25:27.521Z,1160.00
2018-07-08T06:26:27.529Z,1120.00
2018-07-08T06:27:27.653Z,1168.00
2018-07-08T06:28:27.598Z,1208.00
2018-07-08T06:29:27.575Z,1180.00
2018-07-08T06:30:27.575Z,1132.00
2018-07-08T06:31:27.600Z,1128.00
2018-07-08T06:32:27.703Z,1124.00
2018-07-08T06:33:27.698Z,1120.00
2018-07-08T06:34:27.640Z,1100.00
2018-07-08T06:35:27.654Z,1060.00
2018-07-08T06:36:27.666Z,1032.00
2018-07-08T06:37:27.707Z,1024.00
2018-07-08T06:38:27.753Z,1044.00
2018-07-08T06:39:27.701Z,1056.00
2018-07-08T06:40:27.715Z,1100.00
2018-07-08T06:41:27.728Z,1148.00
2018-07-08T06:42:27.746Z,1148.00
2018-07-08T06:43:27.862Z,1164.00
2018-07-08T06:44:27.761Z,1180.00
2018-07-08T06:45:27.768Z,1208.00
2018-07-08T06:46:27.785Z,1216.00
2018-07-08T06:47:27.808Z,1268.00
2018-07-08T06:48:27.921Z,1320.00
2018-07-08T06:49:27.871Z,1320.00
2018-07-08T06:50:27.894Z,1304.00
2018-07-08T06:51:27.854Z,1244.00
2018-07-08T06:52:28.231Z,1192.00
2018-07-08T06:53:27.870Z,1180.00
2018-07-08T06:54:27.887Z,1232.00
2018-07-08T06:55:27.932Z,1296.00
2018-07-08T06:56:27.909Z,1308.00
2018-07-08T06:57:27.913Z,1312.00
2018-07-08T06:58:27.926Z,1336.00
2018-07-08T06:59:27.981Z,1368.00
2018-07-08T07:00:27.964Z,1268.00
2018-07-08T07:01:28.002Z,1300.00
2018-07-08T07:02:27.982Z,1408.00
2018-07-08T07:03:27.991Z,1528.00
2018-07-08T07:04:28.059Z,1568.00
2018-07-08T07:05:28.049Z,1580.00
2018-07-08T07:06:28.046Z,1648.00
2018-07-08T07:07:28.047Z,1648.00
2018-07-08T07:08:28.083Z,1724.00
2018-07-08T07:09:28.978Z,1904.00
2018-07-08T07:10:28.124Z,2024.00
2018-07-08T07:11:28.103Z,2000.00
2018-07-08T07:12:28.106Z,2052.00
2018-07-08T07:13:28.124Z,2108.00
2018-07-08T07:14:28.145Z,2048.00
2018-07-08T07:15:28.205Z,1868.00
2018-07-08T07:16:28.182Z,1772.00
2018-07-08T07:17:28.225Z,1812.00
2018-07-08T07:18:28.205Z,1832.00
2018-07-08T07:19:28.206Z,1828.00
2018-07-08T07:20:28.219Z,1808.00
2018-07-08T07:21:28.223Z,1792.00
2018-07-08T07:22:28.536Z,1972.00
2018-07-08T07:23:28.324Z,2216.00
2018-07-08T07:24:28.275Z,2176.00
2018-07-08T07:25:28.266Z,2112.00
2018-07-08T07:26:28.271Z,2152.00
2018-07-08T07:27:28.336Z,2216.00
2018-07-08T07:28:28.341Z,2304.00
2018-07-08T07:29:28.316Z,2356.00
2018-07-08T07:30:28.351Z,2408.00
2018-07-08T07:31:28.417Z,2392.00
2018-07-08T07:32:28.401Z,2304.00
2018-07-08T07:33:28.377Z,2084.00
2018-07-08T07:34:28.384Z,2112.00
2018-07-08T07:35:28.415Z,2304.00
2018-07-08T07:36:28.426Z,2560.00
2018-07-08T07:37:28.517Z,2572.00
2018-07-08T07:38:28.451Z,2700.00
2018-07-08T07:39:28.468Z,2888.00
2018-07-08T07:40:28.562Z,2964.00
2018-07-08T07:41:28.485Z,2840.00
2018-07-08T07:42:28.524Z,2872.00
2018-07-08T07:43:28.520Z,2820.00
2018-07-08T07:44:28.536Z,2808.00
2018-07-08T07:45:28.584Z,2736.00
2018-07-08T07:46:28.557Z,2652.00
2018-07-08T07:47:28.703Z,2600.00
2018-07-08T07:48:28.620Z,2496.00
2018-07-08T07:49:28.573Z,2548.00
2018-07-08T07:50:28.590Z,2572.00
2018-07-08T07:51:29.880Z,2588.00
2018-07-08T07:52:28.655Z,2476.00
2018-07-08T07:53:28.650Z,2492.00
2018-07-08T07:54:28.642Z,2556.00
2018-07-08T07:55:28.666Z,2636.00
2018-07-08T07:56:28.688Z,2844.00
2018-07-08T07:57:28.727Z,2900.00
2018-07-08T07:58:28.742Z,2904.00
2018-07-08T07:59:28.791Z,2944.00
2018-07-08T08:00:28.727Z,2828.00
2018-07-08T08:01:28.753Z,2696.00
2018-07-08T08:02:28.768Z,2556.00
2018-07-08T08:03:28.773Z,2608.00
2018-07-08T08:04:28.827Z,2596.00
2018-07-08T08:05:28.952Z,2664.00
2018-07-08T08:06:28.850Z,2624.00
2018-07-08T08:07:28.812Z,2608.00
2018-07-08T08:08:28.918Z,2580.00
2018-07-08T08:09:28.869Z,2684.00
2018-07-08T08:10:28.870Z,2772.00
2018-07-08T08:11:28.921Z,2820.00
2018-07-08T08:12:28.884Z,2844.00
2018-07-08T08:13:28.903Z,2912.00
2018-07-08T08:14:28.922Z,2952.00
2018-07-08T08:15:28.992Z,2956.00
2018-07-08T08:16:28.972Z,2976.00
2018-07-08T08:17:28.967Z,2996.00
2018-07-08T08:18:28.976Z,2964.00
2018-07-08T08:19:29.016Z,2928.00
2018-07-08T08:20:29.024Z,2956.00
2018-07-08T08:21:29.011Z,2992.00
2018-07-08T08:22:29.055Z,2992.00
2018-07-08T08:23:29.046Z,2924.00
2018-07-08T08:24:29.063Z,2920.00
2018-07-08T08:25:29.052Z,2908.00
2018-07-08T08:26:29.174Z,2940.00
2018-07-08T08:27:29.090Z,3008.00
2018-07-08T08:28:29.142Z,3064.00
2018-07-08T08:29:29.125Z,3024.00
2018-07-08T08:30:29.134Z,3088.00
2018-07-08T08:31:29.184Z,3096.00
2018-07-08T08:32:29.672Z,3104.00
2018-07-08T08:33:29.233Z,3024.00
2018-07-08T08:34:29.181Z,3032.00
2018-07-08T08:35:29.183Z,3024.00
2018-07-08T08:36:29.271Z,2992.00
2018-07-08T08:37:29.209Z,3004.00
2018-07-08T08:38:29.230Z,2944.00
2018-07-08T08:39:29.246Z,2880.00
2018-07-08T08:40:29.299Z,2868.00
2018-07-08T08:41:29.287Z,2764.00
2018-07-08T08:42:29.284Z,2684.00
2018-07-08T08:43:29.312Z,2748.00
2018-07-08T08:44:29.301Z,2676.00
2018-07-08T08:45:29.360Z,2532.00
2018-07-08T08:46:29.349Z,2412.00
2018-07-08T08:47:29.483Z,2312.00
2018-07-08T08:48:29.367Z,2312.00
2018-07-08T08:49:29.371Z,2216.00
2018-07-08T08:50:29.403Z,2448.00
2018-07-08T08:51:29.401Z,2412.00
2018-07-08T08:52:29.485Z,2192.00
2018-07-08T08:53:29.499Z,2060.00
2018-07-08T08:54:29.487Z,1916.00
2018-07-08T08:55:29.472Z,1852.00
2018-07-08T08:56:29.512Z,1828.00
2018-07-08T08:57:29.483Z,1684.00
2018-07-08T08:58:29.504Z,1672.00
2018-07-08T08:59:29.557Z,1648.00
2018-07-08T09:00:29.539Z,1656.00
2018-07-08T09:01:29.538Z,1680.00
2018-07-08T09:02:29.608Z,1692.00
2018-07-08T09:03:29.623Z,1772.00
2018-07-08T09:04:29.630Z,1868.00
2018-07-08T09:05:29.607Z,2016.00
2018-07-08T09:06:29.623Z,2136.00
2018-07-08T09:07:29.616Z,2224.00
2018-07-08T09:08:29.666Z,2156.00
2018-07-08T09:09:29.702Z,2360.00
2018-07-08T09:10:29.644Z,2512.00
2018-07-08T09:11:29.672Z,2440.00
2018-07-08T09:12:29.697Z,2436.00
2018-07-08T09:13:29.740Z,2396.00
2018-07-08T09:14:29.703Z,2436.00
2018-07-08T09:15:29.727Z,2520.00
2018-07-08T09:16:29.763Z,2540.00
2018-07-08T09:17:29.754Z,2604.00
2018-07-08T09:18:29.815Z,2624.00
2018-07-08T09:19:29.773Z,2600.00
2018-07-08T09:20:29.801Z,2400.00
2018-07-08T09:21:29.808Z,2300.00
2018-07-08T09:22:29.816Z,2316.00
2018-07-08T09:23:29.874Z,2256.00
2018-07-08T09:24:29.874Z,1900.00
2018-07-08T09:25:29.848Z,1764.00
2018-07-08T09:26:29.860Z,1792.00
2018-07-08T09:27:29.903Z,1836.00
2018-07-08T09:28:29.951Z,1608.00
2018-07-08T09:29:29.943Z,1456.00
2018-07-08T09:30:29.952Z,1552.00
2018-07-08T09:31:29.953Z,1480.00
2018-07-08T09:32:29.990Z,1456.00
2018-07-08T09:33:29.975Z,1444.00
2018-07-08T09:34:30.007Z,1424.00
2018-07-08T09:35:30.052Z,1412.00
2018-07-08T09:36:30.042Z,1428.00
2018-07-08T09:37:30.132Z,1424.00
2018-07-08T09:38:30.065Z,1388.00
2018-07-08T09:39:30.089Z,1384.00
2018-07-08T09:40:30.118Z,1428.00
2018-07-08T09:41:30.097Z,1484.00
2018-07-08T09:42:30.144Z,1440.00
2018-07-08T09:43:30.099Z,1412.00
2018-07-08T09:44:30.122Z,1388.00
2018-07-08T09:45:30.139Z,1388.00
2018-07-08T09:46:30.168Z,1388.00
2018-07-08T09:47:30.275Z,1440.00
2018-07-08T09:48:30.529Z,1516.00
2018-07-08T09:49:30.173Z,1504.00
2018-07-08T09:50:30.210Z,1508.00
2018-07-08T09:51:30.307Z,1572.00
2018-07-08T09:52:30.277Z,1664.00
2018-07-08T09:53:30.232Z,1808.00
2018-07-08T09:54:30.373Z,2008.00
2018-07-08T09:55:30.258Z,2108.00
2018-07-08T09:56:30.375Z,2304.00
2018-07-08T09:57:30.309Z,2432.00
2018-07-08T09:58:30.360Z,2640.00
2018-07-08T09:59:30.320Z,2852.00
2018-07-08T10:00:30.361Z,2868.00
2018-07-08T10:01:30.401Z,2836.00
2018-07-08T10:02:30.418Z,2684.00
2018-07-08T10:03:30.375Z,2624.00
2018-07-08T10:04:30.406Z,2568.00
2018-07-08T10:05:30.395Z,2660.00
2018-07-08T10:06:30.410Z,2832.00
2018-07-08T10:07:30.471Z,2836.00
2018-07-08T10:08:30.512Z,2644.00
2018-07-08T10:09:30.458Z,2392.00
2018-07-08T10:10:30.471Z,2460.00
2018-07-08T10:11:30.531Z,2496.00
2018-07-08T10:12:30.531Z,2500.00
2018-07-08T10:13:30.508Z,2296.00
2018-07-08T10:14:30.545Z,2216.00
2018-07-08T10:15:30.546Z,2236.00
2018-07-08T10:16:30.591Z,2396.00
2018-07-08T10:17:30.625Z,2456.00
2018-07-08T10:18:30.684Z,2576.00
2018-07-08T10:19:30.648Z,2676.00
2018-07-08T10:20:30.642Z,2632.00
2018-07-08T10:21:30.650Z,2560.00
2018-07-08T10:22:30.675Z,2736.00
2018-07-08T10:23:30.684Z,2820.00
2018-07-08T10:24:30.710Z,3012.00
2018-07-08T10:25:30.668Z,2984.00
2018-07-08T10:26:30.710Z,3044.00
2018-07-08T10:27:30.729Z,3016.00
2018-07-08T10:28:30.734Z,2892.00
2018-07-08T10:29:30.783Z,2820.00
2018-07-08T10:30:30.750Z,2652.00
2018-07-08T10:31:30.759Z,2368.00
2018-07-08T10:32:30.760Z,2344.00
2018-07-08T10:33:30.790Z,2372.00
2018-07-08T10:34:30.842Z,2356.00
2018-07-08T10:35:30.807Z,2412.00
2018-07-08T10:36:31.034Z,2360.00
2018-07-08T10:37:30.873Z,2456.00
2018-07-08T10:38:30.854Z,2368.00
2018-07-08T10:39:30.916Z,2424.00
2018-07-08T10:40:30.952Z,2592.00
2018-07-08T10:41:30.904Z,2804.00
2018-07-08T10:42:30.917Z,2740.00
2018-07-08T10:43:30.942Z,2668.00
2018-07-08T10:44:30.967Z,2548.00
2018-07-08T10:45:30.969Z,2520.00
2018-07-08T10:46:31.537Z,2428.00
2018-07-08T10:47:31.014Z,2460.00
2018-07-08T10:48:31.064Z,2384.00
2018-07-08T10:49:31.006Z,2208.00
2018-07-08T10:50:31.088Z,2180.00
2018-07-08T10:51:31.082Z,2508.00
2018-07-08T10:52:31.083Z,2628.00
2018-07-08T10:53:31.063Z,2648.00
2018-07-08T10:54:31.105Z,2636.00
2018-07-08T10:55:31.190Z,2568.00
2018-07-08T10:56:31.122Z,2524.00
2018-07-08T10:57:31.137Z,2636.00
2018-07-08T10:58:31.171Z,2624.00
2018-07-08T10:59:31.139Z,2492.00
2018-07-08T11:00:31.195Z,2372.00
2018-07-08T11:01:31.174Z,2132.00
2018-07-08T11:02:31.212Z,1992.00
2018-07-08T11:03:31.248Z,1964.00
2018-07-08T11:04:31.319Z,1864.00
2018-07-08T11:05:31.257Z,1804.00
2018-07-08T11:06:31.253Z,1688.00
2018-07-08T11:07:31.333Z,1716.00
2018-07-08T11:08:31.316Z,1752.00
2018-07-08T11:09:31.289Z,1728.00
2018-07-08T11:10:31.306Z,1672.00
2018-07-08T11:11:31.321Z,1708.00
2018-07-08T11:12:31.368Z,1908.00
2018-07-08T11:13:31.350Z,1964.00
2018-07-08T11:14:31.355Z,2036.00
2018-07-08T11:15:31.374Z,2104.00
2018-07-08T11:16:31.391Z,2024.00
2018-07-08T11:17:31.435Z,1936.00
2018-07-08T11:18:31.413Z,1912.00
2018-07-08T11:19:31.419Z,1952.00
2018-07-08T11:20:31.442Z,1780.00
2018-07-08T11:21:31.700Z,1724.00
2018-07-08T11:22:31.487Z,1644.00
2018-07-08T11:23:31.490Z,1560.00
2018-07-08T11:24:31.506Z,1536.00
2018-07-08T11:25:31.549Z,1456.00
2018-07-08T11:26:31.527Z,1456.00
2018-07-08T11:27:31.541Z,1476.00
2018-07-08T11:28:31.566Z,1456.00
2018-07-08T11:29:31.588Z,1396.00
2018-07-08T11:30:31.605Z,1312.00
2018-07-08T11:31:31.603Z,1264.00
2018-07-08T11:32:31.772Z,1256.00
2018-07-08T11:33:31.672Z,1284.00
2018-07-08T11:34:31.639Z,1348.00
2018-07-08T11:35:31.667Z,1232.00
2018-07-08T11:36:31.704Z,1204.00
2018-07-08T11:37:31.741Z,1188.00
2018-07-08T11:38:31.734Z,1180.00
2018-07-08T11:39:31.734Z,1204.00
2018-07-08T11:40:31.722Z,1244.00
2018-07-08T11:41:31.742Z,1264.00
2018-07-08T11:42:31.751Z,1364.00
2018-07-08T11:43:31.821Z,1544.00
2018-07-08T11:44:31.981Z,1784.00
2018-07-08T11:45:31.793Z,1968.00
2018-07-08T11:46:31.829Z,2068.00
2018-07-08T11:47:31.840Z,2088.00
2018-07-08T11:48:31.892Z,2116.00
2018-07-08T11:49:31.854Z,2000.00
2018-07-08T11:50:31.959Z,2012.00
2018-07-08T11:51:31.887Z,1988.00
2018-07-08T11:52:31.924Z,2032.00
2018-07-08T11:53:31.943Z,2096.00
2018-07-08T11:54:31.932Z,2304.00
2018-07-08T11:55:31.989Z,2432.00
2018-07-08T11:56:31.982Z,2376.00
2018-07-08T11:57:31.971Z,1836.00
2018-07-08T11:58:31.991Z,2708.00
2018-07-08T11:59:32.005Z,2768.00
2018-07-08T12:00:32.018Z,2864.00
2018-07-08T12:01:32.079Z,2760.00
2018-07-08T12:02:32.056Z,2644.00
2018-07-08T12:03:32.158Z,2700.00
2018-07-08T12:04:32.066Z,2720.00
2018-07-08T12:05:32.099Z,2692.00
2018-07-08T12:06:32.129Z,2572.00
2018-07-08T12:07:32.106Z,2452.00
2018-07-08T12:08:32.138Z,2296.00
2018-07-08T12:09:32.184Z,2284.00
2018-07-08T12:10:32.140Z,2352.00
2018-07-08T12:11:32.210Z,2332.00
2018-07-08T12:12:32.173Z,2408.00
2018-07-08T12:13:32.221Z,2308.00
2018-07-08T12:14:32.261Z,2064.00
2018-07-08T12:15:32.238Z,1764.00
2018-07-08T12:16:32.289Z,1704.00
2018-07-08T12:17:32.254Z,1784.00
2018-07-08T12:18:32.249Z,1516.00
2018-07-08T12:19:32.273Z,1500.00
2018-07-08T12:20:32.297Z,1568.00
2018-07-08T12:21:32.386Z,1672.00
2018-07-08T12:22:32.933Z,1656.00
2018-07-08T12:23:32.339Z,1572.00
2018-07-08T12:24:32.345Z,1560.00
2018-07-08T12:25:32.365Z,1424.00
2018-07-08T12:26:32.689Z,1384.00